Terminal Aerodrome Forecast
Issued by NWS La Crosse, WI

Home | Current Version | Previous Version | Text Only | Print | Product List | Glossary On
Versions: 1 2 3 4 5 6 7 8 9 10 11 12 13 14 15 16 17 18 19 20 21 22 23 24 25 26 27 28 29 30 31 32 33 34 35 36 37 38 39 40 41 42 43 44 45 46 47 48 49 50
000
FTUS43 KARX 301720
TAFRST
TAF
KRST 301720Z 3018/3118 20012KT P6SM BKN012
      TEMPO 3018/3019 SCT012
     FM301900 20012KT P6SM SCT015
     FM302200 19008KT P6SM SKC
     FM310800 19008KT P6SM SCT005
     FM311500 19012G19KT P6SM SCT015=

USA.gov is the U.S. government's official web portal to all federal, state and local government web resources and services.